Time;durP1;ratioP1;P1;durP2;ratioP2;P2;SDS_P1;SDS_P2;PMS_P1;PMS_P2;Temp;Humidity;BMP_temperature;BMP_pressure;BME280_temperature;BME280_humidity;BME280_pressure;Samples;Min_cycle;Max_cycle;Signal;HPM_P1;HPM_P2
2021/03/05 00:00:34;;;;;;;7.60;6.50;;;;;;;;;;5033488;28;20513;-62
2021/03/05 00:02:59;;;;;;;9.33;6.00;;;;;;;;;;5032818;28;20233;-62
2021/03/05 00:05:24;;;;;;;9.60;6.60;;;;;;;;;;5032347;28;20954;-62
2021/03/05 00:07:50;;;;;;;9.23;6.40;;;;;;;;;;5033018;28;20233;-61
2021/03/05 00:10:18;;;;;;;8.43;5.70;;;;;;;;;;5034446;28;20267;-61
2021/03/05 00:12:43;;;;;;;8.53;6.40;;;;;;;;;;5036520;28;20224;-61
2021/03/05 00:15:10;;;;;;;8.97;6.20;;;;;;;;;;5036832;28;20453;-61
2021/03/05 00:17:36;;;;;;;7.43;5.80;;;;;;;;;;5036917;28;20552;-61
2021/03/05 00:20:13;;;;;;;9.67;6.40;;;;;;;;;;5036545;28;20438;-61
2021/03/05 00:22:38;;;;;;;10.50;7.10;;;;;;;;;;5036744;28;20219;-61
2021/03/05 00:25:04;;;;;;;8.33;6.20;;;;;;;;;;5035313;28;20871;-61
2021/03/05 00:27:30;;;;;;;10.13;7.20;;;;;;;;;;5037057;28;20223;-61
2021/03/05 00:29:55;;;;;;;8.70;6.13;;;;;;;;;;5036490;28;20955;-62
2021/03/05 00:32:21;;;;;;;11.47;6.67;;;;;;;;;;5050369;28;20214;-62
2021/03/05 00:34:46;;;;;;;8.63;7.13;;;;;;;;;;5056456;28;20304;-62
2021/03/05 00:37:11;;;;;;;11.43;7.27;;;;;;;;;;5056653;28;20226;-62
2021/03/05 00:39:36;;;;;;;9.67;7.07;;;;;;;;;;5056696;28;20298;-61
2021/03/05 00:42:04;;;;;;;11.73;7.70;;;;;;;;;;5037056;28;20234;-61
2021/03/05 00:44:29;;;;;;;12.03;8.07;;;;;;;;;;5036823;28;20224;-62
2021/03/05 00:46:54;;;;;;;10.93;8.03;;;;;;;;;;5036092;28;20466;-62
2021/03/05 00:49:20;;;;;;;13.17;8.63;;;;;;;;;;5036415;28;20357;-61
2021/03/05 00:51:45;;;;;;;11.23;7.60;;;;;;;;;;5036572;28;20538;-62
2021/03/05 00:54:10;;;;;;;10.93;7.87;;;;;;;;;;5034177;28;20665;-62
2021/03/05 00:56:35;;;;;;;16.53;7.90;;;;;;;;;;5036314;28;20316;-61
2021/03/05 00:59:01;;;;;;;11.83;7.73;;;;;;;;;;5028121;28;20246;-62
2021/03/05 01:01:26;;;;;;;14.70;7.90;;;;;;;;;;5049888;28;20679;-61
2021/03/05 01:03:51;;;;;;;13.63;7.00;;;;;;;;;;5041827;28;20227;-63
2021/03/05 01:06:16;;;;;;;17.17;9.20;;;;;;;;;;5036081;28;20350;-61
2021/03/05 01:08:42;;;;;;;10.70;7.53;;;;;;;;;;5032963;28;20620;-62
2021/03/05 01:11:07;;;;;;;17.50;8.77;;;;;;;;;;5044621;28;20366;-61
2021/03/05 01:13:32;;;;;;;12.90;7.40;;;;;;;;;;5036504;28;20546;-62
2021/03/05 01:15:57;;;;;;;13.03;8.17;;;;;;;;;;5035431;28;20229;-62
2021/03/05 01:18:23;;;;;;;13.33;7.80;;;;;;;;;;5035968;28;20239;-61
2021/03/05 01:20:48;;;;;;;18.50;8.13;;;;;;;;;;5035810;28;20662;-60
2021/03/05 01:23:18;;;;;;;16.20;7.83;;;;;;;;;;5034755;28;20263;-61
2021/03/05 01:25:43;;;;;;;14.73;8.10;;;;;;;;;;5035992;28;20279;-62
2021/03/05 01:28:09;;;;;;;18.97;8.57;;;;;;;;;;5035506;28;20520;-62
2021/03/05 01:30:37;;;;;;;17.97;8.30;;;;;;;;;;5035885;28;20212;-62
2021/03/05 01:33:02;;;;;;;11.50;7.43;;;;;;;;;;5035431;28;20222;-62
2021/03/05 01:35:28;;;;;;;12.30;7.60;;;;;;;;;;5035960;28;20756;-62
2021/03/05 01:37:54;;;;;;;13.63;8.40;;;;;;;;;;5035638;28;20728;-61
2021/03/05 01:40:27;;;;;;;18.07;9.80;;;;;;;;;;5035387;28;20452;-62
2021/03/05 01:42:53;;;;;;;15.13;8.13;;;;;;;;;;5035671;28;20230;-62
2021/03/05 01:45:21;;;;;;;18.37;8.60;;;;;;;;;;5036296;28;20447;-62
2021/03/05 01:47:50;;;;;;;18.90;9.00;;;;;;;;;;5040189;28;20274;-61
2021/03/05 01:50:19;;;;;;;19.23;10.70;;;;;;;;;;5034845;28;20898;-62
2021/03/05 01:52:50;;;;;;;18.83;8.40;;;;;;;;;;5035415;28;20464;-61
2021/03/05 01:55:16;;;;;;;15.80;9.23;;;;;;;;;;5035063;28;20452;-62
2021/03/05 01:57:41;;;;;;;17.87;9.00;;;;;;;;;;5035265;28;20496;-61
2021/03/05 02:00:10;;;;;;;17.50;8.90;;;;;;;;;;5034903;28;20216;-61
2021/03/05 02:02:35;;;;;;;22.17;9.60;;;;;;;;;;5035109;28;20238;-61
2021/03/05 02:05:00;;;;;;;17.00;10.20;;;;;;;;;;5034660;28;20545;-61
2021/03/05 02:07:26;;;;;;;21.43;10.67;;;;;;;;;;5035080;28;20216;-61
2021/03/05 02:09:51;;;;;;;23.43;11.93;;;;;;;;;;5034914;28;20356;-61
2021/03/05 02:12:19;;;;;;;19.60;10.70;;;;;;;;;;5034620;28;20218;-61
2021/03/05 02:14:45;;;;;;;17.60;10.80;;;;;;;;;;5034535;28;20241;-62
2021/03/05 02:17:29;;;;;;;20.37;10.97;;;;;;;;;;5034613;28;20495;-62
2021/03/05 02:20:11;;;;;;;20.73;11.47;;;;;;;;;;5019555;28;20237;-61
2021/03/05 02:22:48;;;;;;;18.70;10.30;;;;;;;;;;5033605;28;20460;-61
2021/03/05 02:25:18;;;;;;;19.97;10.40;;;;;;;;;;5033680;28;20478;-61
2021/03/05 02:28:18;;;;;;;24.90;10.43;;;;;;;;;;5034037;28;20453;-61
2021/03/05 02:31:12;;;;;;;24.43;9.40;;;;;;;;;;5034541;28;20449;-61
2021/03/05 02:33:41;;;;;;;23.63;12.30;;;;;;;;;;5033319;28;20508;-61
2021/03/05 02:36:09;;;;;;;26.33;10.20;;;;;;;;;;5035019;28;20449;-61
2021/03/05 02:38:36;;;;;;;26.03;10.80;;;;;;;;;;5034384;28;20762;-62
2021/03/05 02:41:04;;;;;;;18.80;9.53;;;;;;;;;;5033873;28;20466;-62
2021/03/05 02:43:30;;;;;;;21.00;9.80;;;;;;;;;;5034205;28;20855;-63
2021/03/05 02:46:02;;;;;;;16.30;8.50;;;;;;;;;;5033606;28;20788;-62
2021/03/05 02:48:30;;;;;;;15.63;9.57;;;;;;;;;;5034581;28;20539;-62
2021/03/05 02:51:00;;;;;;;18.67;9.60;;;;;;;;;;5033755;28;20465;-62
2021/03/05 02:53:27;;;;;;;20.57;10.70;;;;;;;;;;5034312;28;20472;-62
2021/03/05 02:55:54;;;;;;;21.30;9.10;;;;;;;;;;5034404;28;20632;-62
2021/03/05 02:58:22;;;;;;;20.67;9.93;;;;;;;;;;5033433;28;20835;-63
2021/03/05 03:00:48;;;;;;;18.07;8.93;;;;;;;;;;5034457;28;20452;-62
2021/03/05 03:03:14;;;;;;;18.90;10.00;;;;;;;;;;5033263;28;20479;-62
2021/03/05 03:05:39;;;;;;;15.60;7.50;;;;;;;;;;5034203;28;20458;-61
2021/03/05 03:08:06;;;;;;;14.97;9.23;;;;;;;;;;5034578;28;20292;-62
2021/03/05 03:10:32;;;;;;;13.53;8.03;;;;;;;;;;5033171;28;20224;-61
2021/03/05 03:13:01;;;;;;;24.90;11.80;;;;;;;;;;5033336;28;20812;-61
2021/03/05 03:15:29;;;;;;;13.53;7.33;;;;;;;;;;5033063;28;20307;-61
2021/03/05 03:17:56;;;;;;;14.83;7.70;;;;;;;;;;5034424;28;20495;-61
2021/03/05 03:20:22;;;;;;;16.50;8.33;;;;;;;;;;5033615;28;20464;-61
2021/03/05 03:22:47;;;;;;;14.77;7.70;;;;;;;;;;5032939;28;20453;-61
2021/03/05 03:25:14;;;;;;;13.77;8.30;;;;;;;;;;5034299;28;20453;-61
2021/03/05 03:27:40;;;;;;;12.17;6.80;;;;;;;;;;5034087;28;20236;-61
2021/03/05 03:30:10;;;;;;;13.17;7.67;;;;;;;;;;5033446;28;20467;-62
2021/03/05 03:32:37;;;;;;;22.40;8.07;;;;;;;;;;5032831;28;20532;-62
2021/03/05 03:35:04;;;;;;;17.00;7.77;;;;;;;;;;5033258;28;20516;-62
2021/03/05 03:37:29;;;;;;;11.83;6.70;;;;;;;;;;5033910;28;20461;-61
2021/03/05 03:39:55;;;;;;;10.80;7.20;;;;;;;;;;5033329;28;20487;-61
2021/03/05 03:42:21;;;;;;;14.17;7.37;;;;;;;;;;5034057;28;20213;-61
2021/03/05 03:44:46;;;;;;;14.10;7.10;;;;;;;;;;5034369;28;20244;-62
2021/03/05 03:47:11;;;;;;;12.90;6.70;;;;;;;;;;5038677;28;20279;-60
2021/03/05 03:49:43;;;;;;;12.07;7.70;;;;;;;;;;5037801;28;20539;-61
2021/03/05 03:52:22;;;;;;;11.33;7.67;;;;;;;;;;5037000;28;20275;-61
2021/03/05 03:54:48;;;;;;;11.53;6.37;;;;;;;;;;5036630;28;20453;-61
2021/03/05 03:57:16;;;;;;;14.80;6.97;;;;;;;;;;5038332;28;20730;-61
2021/03/05 03:59:42;;;;;;;14.53;6.27;;;;;;;;;;5036850;28;20462;-61
2021/03/05 04:02:07;;;;;;;10.47;6.43;;;;;;;;;;5037832;28;20473;-61
2021/03/05 04:04:34;;;;;;;12.37;7.00;;;;;;;;;;5037748;28;20233;-62
2021/03/05 04:07:01;;;;;;;7.63;5.83;;;;;;;;;;5038147;28;20210;-62
2021/03/05 04:09:26;;;;;;;14.47;6.60;;;;;;;;;;5036253;28;20903;-64
2021/03/05 04:11:53;;;;;;;10.50;5.00;;;;;;;;;;5036345;28;20467;-61
2021/03/05 04:14:19;;;;;;;13.63;6.63;;;;;;;;;;5036077;28;20222;-62
2021/03/05 04:16:44;;;;;;;11.03;6.23;;;;;;;;;;5036526;28;20851;-62
2021/03/05 04:19:10;;;;;;;12.07;6.60;;;;;;;;;;5036776;28;20209;-61
2021/03/05 04:21:35;;;;;;;7.20;4.97;;;;;;;;;;5036005;28;20210;-62
2021/03/05 04:24:01;;;;;;;13.53;6.43;;;;;;;;;;5036592;28;20217;-62
2021/03/05 04:26:27;;;;;;;9.60;5.17;;;;;;;;;;5037390;28;20217;-62
2021/03/05 04:28:52;;;;;;;10.53;7.00;;;;;;;;;;5036739;28;20461;-62
2021/03/05 04:31:17;;;;;;;8.63;5.30;;;;;;;;;;5037345;28;20293;-61
2021/03/05 04:33:42;;;;;;;8.53;5.63;;;;;;;;;;5036922;28;20237;-62
2021/03/05 04:36:08;;;;;;;10.10;5.30;;;;;;;;;;5036843;28;20216;-62
2021/03/05 04:38:33;;;;;;;7.93;4.90;;;;;;;;;;5037127;28;20515;-61
2021/03/05 04:40:58;;;;;;;9.00;5.47;;;;;;;;;;5037669;28;20309;-62
2021/03/05 04:43:24;;;;;;;9.33;5.20;;;;;;;;;;5037656;28;20229;-62
2021/03/05 04:45:50;;;;;;;9.43;5.30;;;;;;;;;;5037256;28;20217;-62
2021/03/05 04:48:15;;;;;;;11.50;6.13;;;;;;;;;;5037122;28;20221;-62
2021/03/05 04:50:40;;;;;;;9.20;5.27;;;;;;;;;;5037195;28;20297;-62
2021/03/05 04:53:06;;;;;;;11.73;4.00;;;;;;;;;;5037116;28;20293;-62
2021/03/05 04:55:32;;;;;;;8.47;4.43;;;;;;;;;;5037381;28;20653;-62
2021/03/05 04:57:57;;;;;;;7.40;5.87;;;;;;;;;;5037214;28;20248;-62
2021/03/05 05:00:23;;;;;;;10.30;5.37;;;;;;;;;;5037397;28;20461;-62
2021/03/05 05:02:48;;;;;;;8.43;6.33;;;;;;;;;;5036645;28;20235;-62
2021/03/05 05:05:14;;;;;;;9.80;6.60;;;;;;;;;;5036752;28;20222;-62
2021/03/05 05:07:40;;;;;;;8.23;6.13;;;;;;;;;;5036460;28;20241;-62
2021/03/05 05:10:06;;;;;;;9.17;6.37;;;;;;;;;;5036167;28;20459;-62
2021/03/05 05:12:31;;;;;;;8.23;5.03;;;;;;;;;;5036156;28;20209;-62
2021/03/05 05:14:56;;;;;;;7.00;5.90;;;;;;;;;;5036453;28;20507;-62
2021/03/05 05:17:21;;;;;;;10.03;6.07;;;;;;;;;;5036315;28;20222;-62
2021/03/05 05:19:47;;;;;;;9.73;4.07;;;;;;;;;;5036410;28;20301;-62
2021/03/05 05:22:12;;;;;;;6.23;4.13;;;;;;;;;;5036435;28;20722;-62
2021/03/05 05:24:37;;;;;;;6.00;4.60;;;;;;;;;;5036529;28;20288;-61
2021/03/05 05:27:04;;;;;;;5.60;3.87;;;;;;;;;;5036861;28;20277;-62
2021/03/05 05:29:29;;;;;;;5.43;4.03;;;;;;;;;;5036723;28;20223;-62
2021/03/05 05:31:54;;;;;;;5.47;4.10;;;;;;;;;;5036247;28;20544;-62
2021/03/05 05:34:20;;;;;;;5.17;4.20;;;;;;;;;;5036805;28;20209;-61
2021/03/05 05:36:45;;;;;;;4.70;3.37;;;;;;;;;;5036127;28;20237;-61
2021/03/05 05:39:10;;;;;;;4.47;3.90;;;;;;;;;;5036669;28;20713;-61
2021/03/05 05:41:39;;;;;;;5.73;3.17;;;;;;;;;;5036070;28;20221;-62
2021/03/05 05:44:04;;;;;;;5.00;3.30;;;;;;;;;;5036519;28;20218;-62
2021/03/05 05:46:30;;;;;;;6.53;3.73;;;;;;;;;;5036354;28;20533;-61
2021/03/05 05:48:55;;;;;;;3.77;3.40;;;;;;;;;;5035977;28;20329;-61
2021/03/05 05:51:23;;;;;;;5.30;3.30;;;;;;;;;;5035088;28;20221;-61
2021/03/05 05:53:48;;;;;;;6.50;3.87;;;;;;;;;;5034966;28;20211;-62
2021/03/05 05:56:15;;;;;;;4.30;3.53;;;;;;;;;;5035845;28;20479;-61
2021/03/05 05:58:40;;;;;;;8.77;3.80;;;;;;;;;;5035708;28;20219;-61
2021/03/05 06:01:06;;;;;;;7.77;3.63;;;;;;;;;;5035762;28;20453;-61
2021/03/05 06:03:32;;;;;;;6.53;4.13;;;;;;;;;;5035656;28;20306;-62
2021/03/05 06:05:57;;;;;;;5.90;4.73;;;;;;;;;;5035820;28;20463;-61
2021/03/05 06:08:23;;;;;;;5.00;4.07;;;;;;;;;;5035233;28;20213;-61
2021/03/05 06:10:49;;;;;;;6.47;4.17;;;;;;;;;;5035560;28;20230;-61
2021/03/05 06:13:15;;;;;;;5.27;3.77;;;;;;;;;;5034904;28;20542;-62
2021/03/05 06:15:41;;;;;;;4.70;4.10;;;;;;;;;;5035236;28;20479;-62
2021/03/05 06:18:06;;;;;;;5.30;3.57;;;;;;;;;;5035711;28;20463;-61
2021/03/05 06:20:44;;;;;;;4.90;4.07;;;;;;;;;;5036454;28;20472;-66
2021/03/05 06:23:12;;;;;;;5.70;5.10;;;;;;;;;;5047484;28;20238;-62
2021/03/05 06:25:37;;;;;;;6.23;4.40;;;;;;;;;;5043560;28;20449;-62
2021/03/05 06:28:16;;;;;;;4.90;4.27;;;;;;;;;;5035988;28;20529;-62
2021/03/05 06:30:42;;;;;;;5.40;4.43;;;;;;;;;;5052881;28;20213;-63
2021/03/05 06:33:27;;;;;;;6.07;5.13;;;;;;;;;;5055178;28;20539;-62
2021/03/05 06:35:53;;;;;;;8.90;7.43;;;;;;;;;;5055084;28;20221;-62
2021/03/05 06:38:41;;;;;;;4.73;4.30;;;;;;;;;;5044487;28;20503;-61
2021/03/05 06:41:23;;;;;;;6.30;4.23;;;;;;;;;;5034924;28;20471;-62
2021/03/05 06:43:53;;;;;;;6.27;3.57;;;;;;;;;;5035274;28;20788;-63
2021/03/05 06:46:38;;;;;;;5.83;4.43;;;;;;;;;;5034538;28;20451;-62
2021/03/05 06:49:12;;;;;;;5.80;4.50;;;;;;;;;;5034424;28;20477;-62
2021/03/05 06:51:38;;;;;;;4.77;3.97;;;;;;;;;;5035194;28;21029;-61
2021/03/05 06:54:08;;;;;;;7.60;4.37;;;;;;;;;;5034757;28;20461;-62
2021/03/05 06:56:34;;;;;;;7.43;4.30;;;;;;;;;;5034915;28;20743;-62
2021/03/05 06:59:10;;;;;;;5.97;4.23;;;;;;;;;;5034514;28;20468;-63
2021/03/05 07:01:53;;;;;;;6.07;4.03;;;;;;;;;;5034847;28;20507;-61
2021/03/05 07:04:26;;;;;;;4.93;4.03;;;;;;;;;;5034909;28;22020;-62
2021/03/05 07:07:05;;;;;;;5.27;4.00;;;;;;;;;;5034869;28;20457;-61
2021/03/05 07:09:35;;;;;;;5.43;4.30;;;;;;;;;;5034446;28;20861;-62
2021/03/05 07:12:15;;;;;;;7.00;4.53;;;;;;;;;;5034307;28;20453;-61
2021/03/05 07:14:43;;;;;;;5.30;4.23;;;;;;;;;;5034596;28;20523;-61
2021/03/05 07:17:08;;;;;;;5.30;4.70;;;;;;;;;;5034245;28;20907;-61
2021/03/05 07:19:35;;;;;;;5.33;4.17;;;;;;;;;;5056402;28;20483;-62
2021/03/05 07:22:02;;;;;;;5.40;4.20;;;;;;;;;;5071079;28;20533;-61
2021/03/05 07:24:28;;;;;;;6.97;4.33;;;;;;;;;;5061880;28;20455;-63
2021/03/05 07:26:56;;;;;;;4.47;4.03;;;;;;;;;;5059581;28;20494;-62
2021/03/05 07:29:27;;;;;;;4.70;4.30;;;;;;;;;;5068002;28;20451;-63
2021/03/05 07:32:04;;;;;;;4.73;4.20;;;;;;;;;;5058069;28;20931;-62
2021/03/05 07:34:32;;;;;;;7.30;4.50;;;;;;;;;;5058666;28;20471;-62
2021/03/05 07:36:59;;;;;;;6.40;4.93;;;;;;;;;;5070776;28;20452;-62
2021/03/05 07:39:31;;;;;;;5.47;3.77;;;;;;;;;;5078094;28;20837;-62
2021/03/05 07:41:57;;;;;;;5.77;3.93;;;;;;;;;;5077493;28;20767;-61
2021/03/05 07:44:24;;;;;;;5.10;4.33;;;;;;;;;;5078065;28;20449;-62
2021/03/05 07:46:49;;;;;;;6.70;5.00;;;;;;;;;;5077558;28;20216;-62
2021/03/05 07:49:16;;;;;;;5.20;4.70;;;;;;;;;;5077791;28;20455;-62
2021/03/05 07:51:41;;;;;;;8.77;4.10;;;;;;;;;;5076763;28;20266;-62
2021/03/05 07:54:07;;;;;;;4.80;4.30;;;;;;;;;;5061711;28;20455;-62
2021/03/05 07:56:50;;;;;;;6.23;4.80;;;;;;;;;;5057430;28;20216;-62
2021/03/05 07:59:37;;;;;;;5.00;3.97;;;;;;;;;;5056464;28;20350;-62
2021/03/05 08:02:24;;;;;;;4.83;4.07;;;;;;;;;;5047040;28;20783;-63
2021/03/05 08:04:49;;;;;;;4.33;3.40;;;;;;;;;;5042850;28;20506;-62
2021/03/05 08:07:18;;;;;;;5.00;4.00;;;;;;;;;;5057202;28;20768;-62
2021/03/05 08:09:44;;;;;;;7.90;3.90;;;;;;;;;;5040016;28;20213;-62
2021/03/05 08:12:26;;;;;;;7.27;4.10;;;;;;;;;;5056943;28;20577;-61
2021/03/05 08:14:51;;;;;;;7.30;4.60;;;;;;;;;;5056902;28;20261;-62
2021/03/05 08:17:33;;;;;;;8.17;4.57;;;;;;;;;;5055678;28;20452;-62
2021/03/05 08:19:58;;;;;;;5.10;4.47;;;;;;;;;;5055370;28;20290;-62
2021/03/05 08:22:23;;;;;;;4.77;4.00;;;;;;;;;;5054926;28;20464;-62
2021/03/05 08:24:49;;;;;;;4.50;3.50;;;;;;;;;;5055958;28;20213;-63
2021/03/05 08:27:16;;;;;;;7.43;4.20;;;;;;;;;;5055431;28;20553;-62
2021/03/05 08:30:05;;;;;;;6.23;4.43;;;;;;;;;;5043673;28;20210;-63
2021/03/05 08:32:33;;;;;;;6.70;4.73;;;;;;;;;;5036086;28;20747;-61
2021/03/05 08:35:09;;;;;;;5.50;5.00;;;;;;;;;;5036020;28;20469;-62
2021/03/05 08:37:36;;;;;;;8.40;6.07;;;;;;;;;;5035643;28;20445;-63
2021/03/05 08:40:10;;;;;;;4.60;3.80;;;;;;;;;;5035811;28;20536;-63
2021/03/05 08:42:39;;;;;;;4.93;3.80;;;;;;;;;;5035535;28;20488;-62
2021/03/05 08:45:16;;;;;;;5.57;3.90;;;;;;;;;;5035633;28;20458;-62
2021/03/05 08:47:50;;;;;;;7.23;4.27;;;;;;;;;;5037614;28;20896;-62
2021/03/05 08:50:17;;;;;;;7.20;4.60;;;;;;;;;;5041436;28;20465;-62
2021/03/05 08:52:44;;;;;;;5.17;4.57;;;;;;;;;;5051330;28;20482;-63
2021/03/05 08:55:10;;;;;;;6.10;4.70;;;;;;;;;;5068768;28;20478;-63
2021/03/05 08:57:38;;;;;;;5.57;4.97;;;;;;;;;;5048947;28;20780;-62
2021/03/05 09:00:05;;;;;;;5.60;4.90;;;;;;;;;;5055425;28;20606;-61
2021/03/05 09:02:30;;;;;;;7.57;5.00;;;;;;;;;;5053466;28;20471;-62
2021/03/05 09:04:55;;;;;;;7.73;5.73;;;;;;;;;;5043298;28;20465;-62
2021/03/05 09:07:21;;;;;;;11.87;7.70;;;;;;;;;;5034936;28;20705;-62
2021/03/05 09:09:50;;;;;;;7.87;5.80;;;;;;;;;;5054141;28;20236;-63
2021/03/05 09:12:17;;;;;;;11.37;7.07;;;;;;;;;;5050057;28;20228;-62
2021/03/05 09:14:43;;;;;;;11.30;6.50;;;;;;;;;;5035177;28;557212;-63
2021/03/05 09:17:09;;;;;;;7.20;5.97;;;;;;;;;;5056191;28;20225;-62
2021/03/05 09:19:48;;;;;;;6.07;5.47;;;;;;;;;;5055090;28;20460;-63
2021/03/05 09:22:20;;;;;;;6.53;5.70;;;;;;;;;;5055755;28;20536;-62
2021/03/05 09:24:49;;;;;;;6.80;6.10;;;;;;;;;;5054792;28;20453;-63
2021/03/05 09:27:21;;;;;;;10.13;6.37;;;;;;;;;;5055907;28;20459;-62
2021/03/05 09:29:46;;;;;;;8.43;7.37;;;;;;;;;;5055433;28;20448;-62
2021/03/05 09:32:12;;;;;;;10.10;7.23;;;;;;;;;;5055828;28;20480;-63
2021/03/05 09:34:58;;;;;;;7.17;5.77;;;;;;;;;;5055150;28;20670;-63
2021/03/05 09:37:25;;;;;;;7.93;5.23;;;;;;;;;;5054329;28;20220;-64
2021/03/05 09:39:53;;;;;;;6.60;5.30;;;;;;;;;;5035685;28;20478;-63
2021/03/05 09:42:48;;;;;;;5.60;4.40;;;;;;;;;;5035106;28;20479;-63
2021/03/05 09:45:55;;;;;;;6.60;5.13;;;;;;;;;;5040927;28;20967;-63
2021/03/05 09:48:30;;;;;;;6.03;4.40;;;;;;;;;;5055234;28;20548;-60
2021/03/05 09:51:00;;;;;;;4.70;4.20;;;;;;;;;;5047343;28;21003;-60
2021/03/05 09:53:34;;;;;;;5.97;5.07;;;;;;;;;;5038529;28;20453;-60
2021/03/05 09:56:01;;;;;;;6.63;3.87;;;;;;;;;;5044495;28;20530;-60
2021/03/05 09:58:26;;;;;;;6.40;5.00;;;;;;;;;;5035377;28;20774;-62
2021/03/05 10:00:53;;;;;;;5.50;4.37;;;;;;;;;;5035436;28;20443;-62
2021/03/05 10:03:18;;;;;;;5.53;3.77;;;;;;;;;;5035127;28;20234;-61
2021/03/05 10:05:44;;;;;;;7.23;3.97;;;;;;;;;;5035521;28;20462;-60
2021/03/05 10:08:14;;;;;;;5.87;3.60;;;;;;;;;;5035118;28;20232;-62
2021/03/05 10:11:11;;;;;;;5.20;3.77;;;;;;;;;;5035490;28;20545;-61
2021/03/05 10:13:51;;;;;;;6.30;3.60;;;;;;;;;;5034943;28;20417;-61
2021/03/05 10:16:27;;;;;;;7.27;5.17;;;;;;;;;;5034854;28;21036;-61
2021/03/05 10:19:06;;;;;;;3.93;2.90;;;;;;;;;;5035965;28;20457;-61
2021/03/05 10:21:33;;;;;;;5.70;3.20;;;;;;;;;;5037667;28;20471;-60
2021/03/05 10:24:06;;;;;;;7.30;3.23;;;;;;;;;;5055150;28;20470;-62
2021/03/05 10:26:31;;;;;;;2.97;2.60;;;;;;;;;;5054849;28;20472;-61
2021/03/05 10:28:59;;;;;;;3.80;2.40;;;;;;;;;;5048905;28;20524;-61
2021/03/05 10:31:43;;;;;;;4.10;2.13;;;;;;;;;;5034342;28;20664;-61
2021/03/05 10:34:19;;;;;;;2.80;1.87;;;;;;;;;;5035238;28;20462;-60
2021/03/05 10:36:44;;;;;;;3.03;2.13;;;;;;;;;;5034594;28;20907;-60
2021/03/05 10:39:10;;;;;;;3.27;2.30;;;;;;;;;;5034961;28;20472;-61
2021/03/05 10:41:35;;;;;;;3.20;2.23;;;;;;;;;;5033246;28;20223;-60
2021/03/05 10:44:01;;;;;;;3.10;2.50;;;;;;;;;;5033617;28;20262;-60
2021/03/05 10:46:26;;;;;;;2.57;2.37;;;;;;;;;;5034192;28;20224;-60
2021/03/05 10:48:51;;;;;;;2.43;2.10;;;;;;;;;;5033706;28;20308;-60
2021/03/05 10:51:17;;;;;;;3.67;1.90;;;;;;;;;;5039402;28;20319;-60
2021/03/05 10:53:42;;;;;;;4.70;2.67;;;;;;;;;;5053965;28;20305;-59
2021/03/05 10:56:07;;;;;;;2.60;2.30;;;;;;;;;;5054473;28;20223;-60
2021/03/05 10:58:32;;;;;;;4.43;2.60;;;;;;;;;;5054051;28;20712;-60
2021/03/05 11:00:58;;;;;;;4.60;2.67;;;;;;;;;;5042612;28;20739;-60
2021/03/05 11:03:23;;;;;;;4.30;2.90;;;;;;;;;;5049963;28;20230;-60
2021/03/05 11:05:48;;;;;;;3.53;2.93;;;;;;;;;;5054736;28;20314;-60
2021/03/05 11:08:17;;;;;;;3.57;3.27;;;;;;;;;;5054532;28;20222;-60
2021/03/05 11:10:42;;;;;;;2.80;2.30;;;;;;;;;;5053981;28;20240;-60
2021/03/05 11:13:07;;;;;;;5.83;3.10;;;;;;;;;;5054439;28;20441;-60
2021/03/05 11:15:33;;;;;;;3.10;2.10;;;;;;;;;;5053828;28;20266;-59
2021/03/05 11:17:58;;;;;;;2.97;2.67;;;;;;;;;;5054179;28;20248;-60
2021/03/05 11:20:23;;;;;;;3.20;2.50;;;;;;;;;;5053806;28;20592;-60
2021/03/05 11:22:48;;;;;;;3.27;2.60;;;;;;;;;;5053943;28;20230;-59
2021/03/05 11:25:14;;;;;;;4.27;2.53;;;;;;;;;;5054078;28;20284;-59
2021/03/05 11:27:39;;;;;;;4.70;2.37;;;;;;;;;;5053728;28;20277;-60
2021/03/05 11:30:05;;;;;;;7.33;2.40;;;;;;;;;;5039158;28;20215;-60
2021/03/05 11:32:33;;;;;;;6.13;2.60;;;;;;;;;;5033673;28;20243;-60
2021/03/05 11:34:58;;;;;;;3.33;2.50;;;;;;;;;;5034198;28;20663;-60
2021/03/05 11:37:23;;;;;;;4.33;2.47;;;;;;;;;;5033788;28;20431;-62
2021/03/05 11:39:48;;;;;;;2.90;2.23;;;;;;;;;;5037647;28;20549;-59
2021/03/05 11:42:14;;;;;;;3.23;2.00;;;;;;;;;;5035306;28;20300;-60
2021/03/05 11:44:39;;;;;;;4.43;2.27;;;;;;;;;;5032535;28;20224;-60
2021/03/05 11:47:04;;;;;;;1.93;1.50;;;;;;;;;;5033731;28;20213;-59
2021/03/05 11:49:29;;;;;;;2.67;1.70;;;;;;;;;;5033422;28;20240;-60
2021/03/05 11:51:55;;;;;;;2.80;1.60;;;;;;;;;;5033748;28;20301;-60
2021/03/05 11:57:37;;;;;;;2.43;1.67;;;;;;;;;;5022558;28;20253;-60
2021/03/05 12:00:04;;;;;;;2.73;2.10;;;;;;;;;;5033956;28;20433;-60
2021/03/05 12:02:30;;;;;;;2.43;1.80;;;;;;;;;;5036122;28;20458;-59
2021/03/05 12:04:55;;;;;;;3.73;2.10;;;;;;;;;;5042386;28;20773;-60
2021/03/05 12:07:20;;;;;;;2.00;1.70;;;;;;;;;;5049573;28;20227;-59
2021/03/05 12:09:45;;;;;;;2.37;1.70;;;;;;;;;;5057024;28;20243;-60
2021/03/05 12:12:11;;;;;;;1.60;1.10;;;;;;;;;;5038342;28;20286;-61
2021/03/05 12:14:36;;;;;;;1.73;1.40;;;;;;;;;;5037431;28;20675;-59
2021/03/05 12:17:01;;;;;;;2.30;1.50;;;;;;;;;;5037462;28;20662;-61
2021/03/05 12:19:27;;;;;;;1.77;1.23;;;;;;;;;;5044683;28;20647;-60
2021/03/05 12:21:52;;;;;;;1.40;1.20;;;;;;;;;;5056847;28;20212;-60
2021/03/05 12:24:17;;;;;;;1.60;1.50;;;;;;;;;;5056395;28;20324;-60
2021/03/05 12:26:43;;;;;;;2.80;1.27;;;;;;;;;;5056716;28;20224;-60
2021/03/05 12:29:08;;;;;;;1.70;1.60;;;;;;;;;;5049136;28;20213;-61
2021/03/05 12:31:33;;;;;;;2.37;1.63;;;;;;;;;;5036702;28;20225;-60
2021/03/05 12:34:01;;;;;;;1.77;1.37;;;;;;;;;;5039515;28;20260;-59
2021/03/05 12:36:26;;;;;;;2.33;1.23;;;;;;;;;;5048280;28;20217;-59
2021/03/05 12:38:52;;;;;;;3.20;2.00;;;;;;;;;;5043534;28;20770;-60
2021/03/05 12:41:17;;;;;;;2.83;1.80;;;;;;;;;;5035702;28;20320;-60
2021/03/05 12:43:42;;;;;;;4.10;1.80;;;;;;;;;;5036651;28;20353;-59
2021/03/05 12:46:28;;;;;;;2.03;1.50;;;;;;;;;;5052045;28;20279;-61
2021/03/05 12:49:51;;;;;;;;;;;;;;;;;;;;;
2021/03/05 12:52:11;;;;;;;1.90;1.37;;;;;;;;;;5042590;28;20454;-60
2021/03/05 12:56:07;;;;;;;3.00;1.23;;;;;;;;;;5056539;28;20426;-60
2021/03/05 12:58:29;;;;;;;3.20;1.40;;;;;;;;;;5047455;28;20209;-59
2021/03/05 13:01:38;;;;;;;2.23;1.67;;;;;;;;;;5054508;28;20455;-60
2021/03/05 13:04:25;;;;;;;2.10;1.70;;;;;;;;;;4955508;28;20551;-60
2021/03/05 13:06:50;;;;;;;2.33;1.50;;;;;;;;;;5035729;28;20933;-62
2021/03/05 13:09:15;;;;;;;2.27;1.20;;;;;;;;;;5035779;28;20481;-61
2021/03/05 13:11:41;;;;;;;2.53;1.30;;;;;;;;;;5047063;28;20609;-61
2021/03/05 13:14:06;;;;;;;1.83;1.17;;;;;;;;;;5038131;28;20221;-60
2021/03/05 13:16:31;;;;;;;2.57;1.40;;;;;;;;;;5041454;28;20580;-60
2021/03/05 13:18:56;;;;;;;1.40;1.13;;;;;;;;;;5034207;28;20308;-61
2021/03/05 13:21:22;;;;;;;2.20;1.10;;;;;;;;;;5037430;28;20541;-60
2021/03/05 13:23:47;;;;;;;2.90;1.30;;;;;;;;;;5055749;28;20233;-61
2021/03/05 13:26:14;;;;;;;1.63;1.20;;;;;;;;;;5032085;28;20532;-61
2021/03/05 13:28:41;;;;;;;1.77;1.20;;;;;;;;;;5048244;28;20212;-60
2021/03/05 13:31:06;;;;;;;3.63;1.50;;;;;;;;;;5034820;28;20497;-60
2021/03/05 13:33:32;;;;;;;2.00;1.53;;;;;;;;;;5035378;28;20456;-60
2021/03/05 13:35:57;;;;;;;2.60;1.40;;;;;;;;;;5034641;28;20276;-60
2021/03/05 13:38:22;;;;;;;2.07;1.33;;;;;;;;;;5036206;28;20210;-61
2021/03/05 13:40:48;;;;;;;2.13;1.30;;;;;;;;;;5035215;28;20248;-60
2021/03/05 13:43:13;;;;;;;16.70;8.43;;;;;;;;;;5034220;28;20224;-60
2021/03/05 13:45:38;;;;;;;12.93;5.20;;;;;;;;;;5035111;28;20220;-60
2021/03/05 13:48:04;;;;;;;5.47;1.90;;;;;;;;;;5034691;28;20616;-60
2021/03/05 13:50:29;;;;;;;1.83;1.00;;;;;;;;;;5034951;28;20229;-59
2021/03/05 13:52:54;;;;;;;1.67;0.90;;;;;;;;;;5034336;28;20741;-60
2021/03/05 13:55:20;;;;;;;2.50;1.07;;;;;;;;;;5054258;28;20221;-60
2021/03/05 13:57:45;;;;;;;1.77;1.23;;;;;;;;;;5054934;28;20358;-59
2021/03/05 14:00:11;;;;;;;1.87;1.20;;;;;;;;;;5054425;28;20618;-60
2021/03/05 14:02:36;;;;;;;1.93;1.20;;;;;;;;;;5054718;28;20320;-60
2021/03/05 14:05:02;;;;;;;1.73;0.90;;;;;;;;;;5054376;28;20910;-59
2021/03/05 14:07:27;;;;;;;1.47;1.00;;;;;;;;;;5049660;28;20218;-59
2021/03/05 14:09:52;;;;;;;1.63;0.90;;;;;;;;;;5045888;28;20218;-59
2021/03/05 14:12:18;;;;;;;4.30;1.07;;;;;;;;;;5035401;28;20586;-60
2021/03/05 14:14:43;;;;;;;1.90;1.20;;;;;;;;;;5053887;28;20238;-60
2021/03/05 14:17:08;;;;;;;2.60;1.20;;;;;;;;;;5051745;28;20201;-60
2021/03/05 14:19:34;;;;;;;1.90;1.20;;;;;;;;;;5054079;28;20636;-60
2021/03/05 14:21:59;;;;;;;2.00;1.33;;;;;;;;;;5053544;28;20221;-60
2021/03/05 14:24:24;;;;;;;2.03;1.03;;;;;;;;;;5054207;28;20220;-61
2021/03/05 14:26:50;;;;;;;5.30;1.47;;;;;;;;;;5054352;28;20314;-60
2021/03/05 14:29:16;;;;;;;1.53;1.10;;;;;;;;;;5053736;28;20250;-60
2021/03/05 14:31:42;;;;;;;1.57;1.17;;;;;;;;;;5054162;28;20635;-59
2021/03/05 14:34:07;;;;;;;2.63;1.43;;;;;;;;;;5052845;28;20467;-60
2021/03/05 14:36:33;;;;;;;1.63;0.83;;;;;;;;;;5054373;28;20426;-59
2021/03/05 14:38:58;;;;;;;1.50;1.13;;;;;;;;;;5050254;28;20225;-60
2021/03/05 14:41:24;;;;;;;2.30;1.27;;;;;;;;;;5047827;28;20214;-60
2021/03/05 14:43:49;;;;;;;2.20;1.00;;;;;;;;;;5050554;28;20564;-60
2021/03/05 14:46:14;;;;;;;1.70;0.80;;;;;;;;;;5050968;28;20303;-60
2021/03/05 14:48:39;;;;;;;1.37;1.17;;;;;;;;;;5051936;28;20580;-60